»·PEaware :: N715TL KFUL-KGCN

N715TL :: KFUL-KGCN

FLIGHT INFORMATION

Flight Status: Arrived
Operator: Privately registered:
United States
More flights under this callsign
Pilot: Anonymous 40760 (40760)
Aircraft: PILATUS PC-12 EAGLE
(PC12)
More flights by this aircraft type
Origin: KFUL Fullerton Mun
United States
Destination: KGCN Grand Canyon Natl Park
United States
More flights between these airports :: More routes between these airports
Route: PDZ HEC PGS
File this flight plan on PilotEdge
Remarks:
Altitude:
(Current/Filed)
17,500ft
Speed:
(Current/Filed)
250kts
Departed: 10-Sep-22 01:41 PM
Arrived: 10-Sep-22 03:01 PM
Distance/Time
Traveled:
313nm/1:20
Distance/Time
To Go:
Arrived

Flight Plot

Page will automatically refresh every two minutes.

Flight plan parsing failed; only flown route is shown


Map Options




Map Legend


Flown Route
Filed Route
Departure Airport
Arrival Airport
Navaid (VOR, NDB)
Fix

Horizontal Profiles

Position Reports

Time Latitude Longitude Heading Altitude Ground
Speed
10-Sep-22 13:31 33.871077 -117.978974 75 96ft 0kts
10-Sep-22 13:32 33.871077 -117.978974 75 96ft 0kts
10-Sep-22 13:33 33.871077 -117.978974 75 96ft 0kts
10-Sep-22 13:34 33.871077 -117.978974 75 96ft 0kts
10-Sep-22 13:35 33.871077 -117.978974 75 96ft 0kts
10-Sep-22 13:36 33.871112 -117.978806 76 97ft 6kts
10-Sep-22 13:37 33.872497 -117.975156 78 104ft 0kts
10-Sep-22 13:38 33.872497 -117.975156 78 104ft 0kts
10-Sep-22 13:39 33.872713 -117.976012 254 102ft 33kts
10-Sep-22 13:40 33.864880 -118.006544 207 801ft 128kts
10-Sep-22 13:41 33.862907 -117.963551 74 2017ft 179kts
10-Sep-22 13:42 33.871816 -117.912538 82 4371ft 157kts
10-Sep-22 13:43 33.879355 -117.858827 81 6034ft 188kts
10-Sep-22 13:44 33.887734 -117.789422 86 6757ft 215kts
10-Sep-22 13:45 33.894285 -117.723383 85 8892ft 187kts
10-Sep-22 13:46 33.900831 -117.664325 85 11000ft 169kts
10-Sep-22 13:47 33.907923 -117.610983 85 13298ft 152kts
10-Sep-22 13:48 33.915205 -117.563708 85 15058ft 142kts
10-Sep-22 13:49 33.938932 -117.524831 52 16461ft 148kts
10-Sep-22 13:50 33.971645 -117.484686 51 16708ft 215kts
10-Sep-22 13:52 34.019904 -117.425945 49 15987ft 269kts
10-Sep-22 13:53 34.072432 -117.361827 50 16360ft 252kts
10-Sep-22 13:54 34.119548 -117.304268 50 17436ft 241kts
10-Sep-22 13:55 34.168301 -117.244047 49 17532ft 258kts
10-Sep-22 13:56 34.219269 -117.181298 49 17487ft 264kts
10-Sep-22 13:57 34.270855 -117.117852 49 17498ft 265kts
10-Sep-22 13:58 34.322637 -117.053805 49 17525ft 267kts
10-Sep-22 13:59 34.374612 -116.989602 49 17500ft 266kts
10-Sep-22 14:00 34.426283 -116.925498 49 17460ft 266kts
10-Sep-22 14:01 34.477782 -116.861587 49 17459ft 264kts
10-Sep-22 14:02 34.528839 -116.798061 49 17456ft 261kts
10-Sep-22 14:03 34.579715 -116.734682 49 17477ft 262kts
10-Sep-22 14:04 34.630529 -116.671164 49 17489ft 262kts
10-Sep-22 14:05 34.681516 -116.607431 49 17520ft 264kts
10-Sep-22 14:06 34.732901 -116.542889 50 17507ft 265kts
10-Sep-22 14:07 34.761659 -116.463027 74 17435ft 258kts
10-Sep-22 14:08 34.785474 -116.380709 72 17410ft 257kts
10-Sep-22 14:09 34.810516 -116.299592 72 17419ft 255kts
10-Sep-22 14:10 34.835622 -116.218460 72 17431ft 257kts
10-Sep-22 14:11 34.860807 -116.136879 72 17408ft 256kts
10-Sep-22 14:12 34.885829 -116.055520 72 17450ft 258kts
10-Sep-22 14:13 34.911079 -115.973162 72 17395ft 257kts
10-Sep-22 14:14 34.935986 -115.891826 72 17429ft 256kts
10-Sep-22 14:14 34.956697 -115.823916 72 17409ft 256kts
10-Sep-22 14:15 34.981478 -115.742515 72 17420ft 255kts
10-Sep-22 14:17 35.010156 -115.648081 72 17412ft 254kts
10-Sep-22 14:18 35.034747 -115.566735 72 17476ft 256kts
10-Sep-22 14:18 35.055352 -115.498447 72 17488ft 258kts
10-Sep-22 14:19 35.080199 -115.415856 72 17479ft 259kts
10-Sep-22 14:21 35.109351 -115.318638 73 17472ft 263kts
10-Sep-22 14:22 35.134489 -115.234540 73 17486ft 264kts
10-Sep-22 14:22 35.155441 -115.164318 73 17475ft 264kts
10-Sep-22 14:23 35.180529 -115.080025 73 17461ft 263kts
10-Sep-22 14:24 35.205497 -114.995806 73 17494ft 264kts
10-Sep-22 14:25 35.230682 -114.910563 73 17485ft 267kts
10-Sep-22 14:26 35.255673 -114.825927 73 17433ft 263kts
10-Sep-22 14:27 35.280399 -114.741810 73 17450ft 264kts
10-Sep-22 14:28 35.304381 -114.655872 74 17386ft 266kts
10-Sep-22 14:29 35.327219 -114.570008 74 17353ft 264kts
10-Sep-22 14:30 35.350174 -114.484671 74 17369ft 263kts
10-Sep-22 14:31 35.373072 -114.399465 74 17396ft 264kts
10-Sep-22 14:32 35.396070 -114.313632 74 17362ft 265kts
10-Sep-22 14:33 35.415881 -114.227548 88 17386ft 258kts
10-Sep-22 14:34 35.427136 -114.141110 74 17438ft 261kts
10-Sep-22 14:35 35.449602 -114.055480 74 17385ft 269kts
10-Sep-22 14:36 35.472770 -113.967562 74 17047ft 274kts
10-Sep-22 14:37 35.496593 -113.876948 74 16337ft 280kts
10-Sep-22 14:38 35.520624 -113.785863 74 15583ft 280kts
10-Sep-22 14:39 35.544886 -113.694502 74 14891ft 281kts
10-Sep-22 14:40 35.569276 -113.603058 74 14344ft 282kts
10-Sep-22 14:41 35.593674 -113.511743 74 13765ft 280kts
10-Sep-22 14:42 35.617877 -113.420860 74 13191ft 278kts
10-Sep-22 14:43 35.641412 -113.330594 74 12580ft 277kts
10-Sep-22 14:44 35.664391 -113.240690 74 12000ft 276kts
10-Sep-22 14:45 35.686834 -113.150838 73 11361ft 273kts
10-Sep-22 14:46 35.708485 -113.061547 74 10799ft 271kts
10-Sep-22 14:47 35.729444 -112.972933 73 10399ft 268kts
10-Sep-22 14:48 35.749818 -112.884979 74 10044ft 267kts
10-Sep-22 14:49 35.769855 -112.797150 73 9564ft 266kts
10-Sep-22 14:50 35.789804 -112.709639 73 9245ft 261kts
10-Sep-22 14:51 35.809145 -112.624710 73 9243ft 255kts
10-Sep-22 14:52 35.828369 -112.540256 73 9241ft 255kts
10-Sep-22 14:53 35.847630 -112.455357 73 8904ft 265kts
10-Sep-22 14:54 35.870295 -112.367220 67 8338ft 272kts
10-Sep-22 14:55 35.903932 -112.285295 43 7997ft 262kts
10-Sep-22 14:56 35.955030 -112.224237 60 8003ft 247kts
10-Sep-22 14:57 35.980140 -112.150914 42 7997ft 235kts
10-Sep-22 14:58 35.986957 -112.109468 232 7784ft 137kts
10-Sep-22 14:59 35.962825 -112.135998 220 6683ft 98kts
10-Sep-22 15:00 35.955351 -112.142107 218 6593ft 14kts
10-Sep-22 15:01 35.954592 -112.142022 129 6590ft 0kts
10-Sep-22 15:02 35.954592 -112.142022 129 6590ft 0kts

Navigation Log

Ident Type
Flight plan parsing failed, navigation log unavailable